Saint Johns, Ohio
Current Conditions -  °F | °C
As of 7:53 AM on Saturday 22 Nov 2014 (Local Time) from KAOH Reporting Station
Overcast Overcast  
Wind Chill: 29°   Ceiling: 3100
Heat Index: 38°   Visibility: 9mi
Dew Point: 33°   Wind: 15mph
Humidity: 83%   Direction: 190°S
Pressure: 30.17"   Gusts: 23mph
Location:  40.56°N, 84.08°W
Report Text: KAOH 221253Z AUTO 19013G20KT 9SM FEW021 BKN031 OVC045 03/01 A3017 RMK AO2 UPE03RAB03E29 SLP228 P0004 T00330006
Loading
Personal Weather Stations






























Interactive Weather Map New forecast layout! Learn more

10-Day Weather Forecast

Advertisements
Track Severe Weather on mobile